createdAt,value
2019-05-23T00:00:51.719Z,96993.33
2019-05-23T00:03:44.679Z,96994.55
2019-05-23T00:06:36.035Z,96989.36
2019-05-23T00:09:26.167Z,96989.27
2019-05-23T00:12:02.454Z,96984.20
2019-05-23T00:14:48.099Z,96988.73
2019-05-23T00:17:20.798Z,96986.86
2019-05-23T00:19:53.118Z,96981.16
2019-05-23T00:22:25.080Z,96984.81
2019-05-23T00:24:57.379Z,96977.87
2019-05-23T00:27:30.512Z,96978.48
2019-05-23T00:30:03.921Z,96980.50
2019-05-23T00:32:38.462Z,96980.13
2019-05-23T00:35:13.177Z,96981.06
2019-05-23T00:37:46.954Z,96977.39
2019-05-23T00:40:19.277Z,96983.09
2019-05-23T00:42:51.839Z,96983.18
2019-05-23T00:45:24.242Z,96977.24
2019-05-23T00:47:58.036Z,96984.02
2019-05-23T00:50:29.922Z,96980.35
2019-05-23T00:53:02.188Z,96982.61
2019-05-23T00:55:35.886Z,96984.73
2019-05-23T00:58:09.330Z,96986.98
2019-05-23T01:00:41.870Z,96986.39
2019-05-23T01:03:17.077Z,96990.90
2019-05-23T01:05:48.861Z,96986.62
2019-05-23T01:08:21.877Z,96982.61
2019-05-23T01:10:55.177Z,96992.23
2019-05-23T01:13:28.741Z,96987.41
2019-05-23T01:16:01.368Z,96979.83
2019-05-23T01:18:33.494Z,96985.27
2019-05-23T01:21:23.416Z,96991.68
2019-05-23T01:24:02.812Z,96986.09
2019-05-23T01:26:34.748Z,96989.66
2019-05-23T01:29:07.662Z,96986.69
2019-05-23T01:31:41.252Z,96985.98
2019-05-23T01:34:14.761Z,96981.69
2019-05-23T01:36:46.909Z,96981.95
2019-05-23T01:39:19.284Z,96979.57
2019-05-23T01:41:51.222Z,96979.43
2019-05-23T01:44:23.824Z,96975.30
2019-05-23T01:46:56.496Z,96984.08
2019-05-23T01:49:29.490Z,96988.23
2019-05-23T01:52:01.324Z,96984.91
2019-05-23T01:54:33.551Z,96984.08
2019-05-23T01:57:06.431Z,96984.93
2019-05-23T01:59:39.163Z,96983.08
2019-05-23T02:02:11.413Z,96980.22
2019-05-23T02:04:43.302Z,96991.36
2019-05-23T02:07:16.516Z,96980.56
2019-05-23T02:09:48.334Z,96981.28
2019-05-23T02:12:20.580Z,96980.23
2019-05-23T02:14:53.243Z,96978.22
2019-05-23T02:17:26.441Z,96981.09
2019-05-23T02:19:59.233Z,96985.34
2019-05-23T02:22:32.141Z,96982.59
2019-05-23T02:25:07.238Z,96980.69
2019-05-23T02:27:40.344Z,96982.45
2019-05-23T02:30:33.153Z,96977.95
2019-05-23T02:32:53.014Z,96976.45
2019-05-23T02:35:25.138Z,96980.00
2019-05-23T02:38:10.331Z,96977.27
2019-05-23T02:40:47.046Z,96980.59
2019-05-23T02:43:26.830Z,96977.50
2019-05-23T02:46:03.578Z,96972.52
2019-05-23T02:48:39.100Z,96972.16
2019-05-23T02:51:32.488Z,96971.23
2019-05-23T02:54:07.408Z,96970.98
2019-05-23T02:56:40.606Z,96968.52
2019-05-23T02:59:27.052Z,96971.84
2019-05-23T03:02:51.802Z,96967.94
2019-05-23T03:05:25.979Z,96969.48
2019-05-23T03:08:00.513Z,96964.27
2019-05-23T03:10:54.769Z,96966.63
2019-05-23T03:13:30.382Z,96964.02
2019-05-23T03:16:02.477Z,96961.77
2019-05-23T03:18:38.954Z,96965.22
2019-05-23T03:21:12.339Z,96962.84
2019-05-23T03:23:45.645Z,96963.20
2019-05-23T03:26:35.727Z,96960.59
2019-05-23T03:29:08.891Z,96958.34
2019-05-23T03:31:59.996Z,96962.13
2019-05-23T03:34:33.397Z,96965.72
2019-05-23T03:37:06.950Z,96971.16
2019-05-23T03:39:40.762Z,96969.84
2019-05-23T03:42:13.441Z,96972.34
2019-05-23T03:44:46.910Z,96972.56
2019-05-23T03:47:20.497Z,96978.50
2019-05-23T03:49:52.792Z,96976.84
2019-05-23T03:52:25.588Z,96973.54
2019-05-23T03:54:57.690Z,96973.54
2019-05-23T03:57:30.869Z,96978.40
2019-05-23T04:00:04.638Z,96980.17
2019-05-23T04:02:37.426Z,96975.66
2019-05-23T04:05:09.660Z,96978.75
2019-05-23T04:07:42.670Z,96980.19
2019-05-23T04:10:14.932Z,96974.25
2019-05-23T04:12:47.536Z,96976.95
2019-05-23T04:15:20.808Z,96975.55
2019-05-23T04:17:53.437Z,96976.73
2019-05-23T04:20:25.482Z,96974.02
2019-05-23T04:22:57.614Z,96967.34
2019-05-23T04:25:29.617Z,96972.92
2019-05-23T04:28:02.249Z,96976.48
2019-05-23T04:30:34.586Z,96972.56
2019-05-23T04:33:06.788Z,96977.19
2019-05-23T04:35:38.611Z,96981.45
2019-05-23T04:38:11.981Z,96976.13
2019-05-23T04:40:43.806Z,96980.16
2019-05-23T04:43:15.647Z,96974.14
2019-05-23T04:45:47.647Z,96978.04
2019-05-23T04:48:19.477Z,96970.30
2019-05-23T04:50:51.645Z,96972.31
2019-05-23T04:53:24.808Z,96970.50
2019-05-23T04:55:58.636Z,96974.17
2019-05-23T04:58:31.344Z,96970.73
2019-05-23T05:01:04.198Z,96978.66
2019-05-23T05:03:37.833Z,96975.92
2019-05-23T05:06:10.896Z,96973.52
2019-05-23T05:08:42.995Z,96974.12
2019-05-23T05:11:15.103Z,96975.04
2019-05-23T05:13:47.231Z,96974.78
2019-05-23T05:16:18.988Z,96979.14
2019-05-23T05:18:50.826Z,96985.38
2019-05-23T05:21:23.653Z,96983.93
2019-05-23T05:23:55.698Z,96983.30
2019-05-23T05:26:27.521Z,96981.64
2019-05-23T05:28:59.456Z,96985.84
2019-05-23T05:31:31.671Z,96992.08
2019-05-23T05:34:03.755Z,96992.98
2019-05-23T05:36:35.584Z,96994.48
2019-05-23T05:39:09.485Z,96997.65
2019-05-23T05:41:42.309Z,96999.94
2019-05-23T05:44:14.526Z,96995.09
2019-05-23T05:46:46.531Z,96998.79
2019-05-23T05:49:18.288Z,97002.36
2019-05-23T05:51:50.595Z,96996.41
2019-05-23T05:54:22.707Z,96999.03
2019-05-23T05:56:54.461Z,96997.78
2019-05-23T05:59:26.302Z,96995.26
2019-05-23T06:01:58.392Z,97000.94
2019-05-23T06:04:30.699Z,97007.71
2019-05-23T06:07:17.443Z,97003.71
2019-05-23T06:09:50.851Z,97011.91
2019-05-23T06:12:23.716Z,97009.23
2019-05-23T06:14:55.558Z,97007.98
2019-05-23T06:17:28.249Z,97008.39
2019-05-23T06:20:00.197Z,97012.41
2019-05-23T06:22:33.601Z,97008.53
2019-05-23T06:25:08.834Z,97010.72
2019-05-23T06:27:42.641Z,97018.42
2019-05-23T06:30:17.297Z,97009.62
2019-05-23T06:32:49.222Z,97001.06
2019-05-23T06:35:21.463Z,97000.70
2019-05-23T06:37:53.249Z,96995.94
2019-05-23T06:40:26.342Z,96997.98
2019-05-23T06:42:58.182Z,96995.55
2019-05-23T06:45:30.474Z,96989.87
2019-05-23T06:48:02.257Z,96986.55
2019-05-23T06:50:35.554Z,96985.67
2019-05-23T06:53:07.441Z,96986.41
2019-05-23T06:55:39.220Z,96989.80
2019-05-23T06:58:12.961Z,96985.37
2019-05-23T07:00:45.099Z,96990.02
2019-05-23T07:03:16.855Z,96982.70
2019-05-23T07:05:49.318Z,96982.06
2019-05-23T07:08:25.515Z,96988.73
2019-05-23T07:10:57.365Z,96986.95
2019-05-23T07:13:31.742Z,96989.78
2019-05-23T07:16:05.249Z,96989.14
2019-05-23T07:18:37.109Z,96988.50
2019-05-23T07:21:10.630Z,96981.92
2019-05-23T07:23:42.417Z,96986.55
2019-05-23T07:26:14.388Z,96985.26
2019-05-23T07:28:46.189Z,96977.50
2019-05-23T07:31:18.202Z,96982.41
2019-05-23T07:34:01.035Z,96971.97
2019-05-23T07:36:23.646Z,96973.40
2019-05-23T07:38:55.477Z,96972.20
2019-05-23T07:41:27.285Z,96968.48
2019-05-23T07:43:59.068Z,96971.59
2019-05-23T07:46:31.196Z,96974.41
2019-05-23T07:49:03.419Z,96971.77
2019-05-23T07:51:35.678Z,96976.13
2019-05-23T07:54:18.069Z,96971.66
2019-05-23T07:56:50.138Z,96971.12
2019-05-23T07:59:22.080Z,96973.97
2019-05-23T08:02:05.060Z,96968.72
2019-05-23T08:04:37.272Z,96972.77
2019-05-23T08:07:10.881Z,96975.59
2019-05-23T08:09:42.649Z,96968.44
2019-05-23T08:12:14.586Z,96969.55
2019-05-23T08:14:46.376Z,96964.25
2019-05-23T08:17:18.174Z,96964.67
2019-05-23T08:19:50.572Z,96964.82
2019-05-23T08:22:22.587Z,96961.92
2019-05-23T08:24:54.536Z,96963.73
2019-05-23T08:27:26.998Z,96962.83
2019-05-23T08:30:02.266Z,96967.16
2019-05-23T08:32:33.600Z,96965.90
2019-05-23T08:35:06.988Z,96967.09
2019-05-23T08:37:39.809Z,96960.15
2019-05-23T08:40:12.857Z,96966.16
2019-05-23T08:42:45.866Z,96961.81
2019-05-23T08:45:18.954Z,96967.46
2019-05-23T08:47:51.114Z,96963.92
2019-05-23T08:50:24.195Z,96963.09
2019-05-23T08:52:55.974Z,96955.68
2019-05-23T08:55:28.458Z,96963.68
2019-05-23T08:58:00.695Z,96955.28
2019-05-23T09:00:37.551Z,96949.91
2019-05-23T09:03:10.872Z,96943.91
2019-05-23T09:05:42.637Z,96948.89
2019-05-23T09:08:16.999Z,96945.82
2019-05-23T09:10:49.029Z,96946.14
2019-05-23T09:13:21.250Z,96942.41
2019-05-23T09:15:53.621Z,96950.19
2019-05-23T09:18:25.814Z,96943.84
2019-05-23T09:20:57.747Z,96945.81
2019-05-23T09:23:29.529Z,96941.47
2019-05-23T09:26:02.741Z,96945.52
2019-05-23T09:28:35.189Z,96948.65
2019-05-23T09:31:07.531Z,96940.12
2019-05-23T09:33:39.410Z,96949.00
2019-05-23T09:36:11.716Z,96939.44
2019-05-23T09:38:43.474Z,96941.22
2019-05-23T09:41:15.230Z,96938.93
2019-05-23T09:43:47.156Z,96929.72
2019-05-23T09:46:19.067Z,96930.00
2019-05-23T09:48:50.835Z,96925.05
2019-05-23T09:51:22.784Z,96920.77
2019-05-23T09:53:54.634Z,96910.80
2019-05-23T09:56:27.039Z,96915.59
2019-05-23T09:58:58.988Z,96909.79
2019-05-23T10:01:30.888Z,96911.97
2019-05-23T10:04:03.413Z,96910.39
2019-05-23T10:06:35.702Z,96912.09
2019-05-23T10:09:09.203Z,96913.36
2019-05-23T10:11:40.967Z,96910.11
2019-05-23T10:14:29.376Z,96905.59
2019-05-23T10:17:01.156Z,96899.39
2019-05-23T10:19:33.994Z,96897.73
2019-05-23T10:22:07.403Z,96896.91
2019-05-23T10:24:39.176Z,96890.20
2019-05-23T10:27:13.246Z,96893.69
2019-05-23T10:29:45.018Z,96891.55
2019-05-23T10:32:16.959Z,96893.94
2019-05-23T10:34:48.733Z,96891.98
2019-05-23T10:37:21.438Z,96888.66
2019-05-23T10:39:55.854Z,96887.63
2019-05-23T10:42:28.187Z,96888.32
2019-05-23T10:44:59.960Z,96884.81
2019-05-23T10:47:31.743Z,96873.19
2019-05-23T10:50:09.739Z,96868.27
2019-05-23T10:52:41.396Z,96868.75
2019-05-23T10:55:13.413Z,96875.20
2019-05-23T10:57:46.036Z,96872.08
2019-05-23T11:00:19.872Z,96874.55
2019-05-23T11:02:52.442Z,96867.95
2019-05-23T11:05:24.289Z,96869.28
2019-05-23T11:07:56.303Z,96872.39
2019-05-23T11:10:29.060Z,96858.95
2019-05-23T11:13:01.129Z,96858.02
2019-05-23T11:15:32.907Z,96855.98
2019-05-23T11:18:04.810Z,96853.48
2019-05-23T11:20:37.271Z,96849.16
2019-05-23T11:23:12.207Z,96853.37
2019-05-23T11:25:44.317Z,96851.02
2019-05-23T11:28:16.147Z,96844.91
2019-05-23T11:30:58.674Z,96843.10
2019-05-23T11:33:30.778Z,96842.72
2019-05-23T11:36:02.732Z,96850.56
2019-05-23T11:38:34.491Z,96844.58
2019-05-23T11:41:06.264Z,96849.75
2019-05-23T11:43:39.508Z,96846.47
2019-05-23T11:46:15.700Z,96837.23
2019-05-23T11:48:47.804Z,96838.66
2019-05-23T11:51:24.506Z,96834.59
2019-05-23T11:54:06.847Z,96835.28
2019-05-23T11:56:27.734Z,96822.45
2019-05-23T11:59:01.389Z,96818.29
2019-05-23T12:01:36.115Z,96816.97
2019-05-23T12:04:09.887Z,96818.59
2019-05-23T12:06:55.491Z,96816.36
2019-05-23T12:09:23.712Z,96812.39
2019-05-23T12:11:55.477Z,96812.34
2019-05-23T12:14:27.243Z,96804.45
2019-05-23T12:16:59.026Z,96811.88
2019-05-23T12:19:31.071Z,96809.83
2019-05-23T12:22:03.887Z,96802.66
2019-05-23T12:24:38.410Z,96803.77
2019-05-23T12:27:11.115Z,96799.81
2019-05-23T12:29:43.335Z,96797.80
2019-05-23T12:32:15.098Z,96796.38
2019-05-23T12:35:08.074Z,96796.88
2019-05-23T12:37:21.142Z,96798.50
2019-05-23T12:39:53.733Z,96792.97
2019-05-23T12:42:25.514Z,96796.61
2019-05-23T12:44:57.305Z,96791.59
2019-05-23T12:47:30.709Z,96782.84
2019-05-23T12:50:04.305Z,96777.93
2019-05-23T12:52:36.075Z,96781.44
2019-05-23T12:55:08.736Z,96779.52
2019-05-23T12:57:40.738Z,96775.41
2019-05-23T13:00:20.947Z,96772.62
2019-05-23T13:02:52.707Z,96766.88
2019-05-23T13:05:24.821Z,96767.48
2019-05-23T13:07:56.611Z,96767.75
2019-05-23T13:10:28.642Z,96761.50
2019-05-23T13:13:00.784Z,96757.80
2019-05-23T13:15:32.749Z,96765.62
2019-05-23T13:18:05.421Z,96758.34
2019-05-23T13:20:38.603Z,96761.52
2019-05-23T13:23:20.295Z,96752.59
2019-05-23T13:25:44.824Z,96757.47
2019-05-23T13:28:16.629Z,96755.34
2019-05-23T13:30:48.708Z,96751.28
2019-05-23T13:33:21.306Z,96745.70
2019-05-23T13:35:53.157Z,96741.41
2019-05-23T13:38:24.925Z,96743.69
2019-05-23T13:40:56.767Z,96743.53
2019-05-23T13:43:29.217Z,96741.00
2019-05-23T13:46:01.066Z,96740.86
2019-05-23T13:48:32.895Z,96740.19
2019-05-23T13:51:04.999Z,96742.33
2019-05-23T13:53:36.838Z,96744.05
2019-05-23T13:56:08.946Z,96738.09
2019-05-23T13:58:40.782Z,96734.94
2019-05-23T14:01:13.195Z,96734.09
2019-05-23T14:03:46.421Z,96740.83
2019-05-23T14:06:18.202Z,96738.47
2019-05-23T14:08:49.961Z,96739.73
2019-05-23T14:11:21.803Z,96735.41
2019-05-23T14:13:59.479Z,96732.14
2019-05-23T14:16:28.777Z,96721.61
2019-05-23T14:19:01.151Z,96721.47
2019-05-23T14:21:34.713Z,96721.34
2019-05-23T14:24:07.012Z,96718.45
2019-05-23T14:26:40.426Z,96721.56
2019-05-23T14:29:12.185Z,96717.65
2019-05-23T14:31:48.313Z,96712.72
2019-05-23T14:34:20.070Z,96710.53
2019-05-23T14:36:56.773Z,96703.32
2019-05-23T14:39:30.545Z,96700.83
2019-05-23T14:42:03.964Z,96706.95
2019-05-23T14:44:35.877Z,96701.78
2019-05-23T14:47:15.744Z,96701.62
2019-05-23T14:49:55.122Z,96703.63
2019-05-23T14:52:34.922Z,96696.62
2019-05-23T14:55:10.838Z,96690.01
2019-05-23T14:57:42.968Z,96682.94
2019-05-23T15:00:14.973Z,96680.34
2019-05-23T15:02:47.391Z,96680.03
2019-05-23T15:05:19.302Z,96670.51
2019-05-23T15:07:51.102Z,96678.55
2019-05-23T15:10:22.837Z,96665.31
2019-05-23T15:12:54.613Z,96670.67
2019-05-23T15:15:26.582Z,96670.22
2019-05-23T15:17:58.677Z,96673.39
2019-05-23T15:20:30.786Z,96662.45
2019-05-23T15:23:02.626Z,96663.45
2019-05-23T15:25:34.397Z,96663.34
2019-05-23T15:28:06.445Z,96658.97
2019-05-23T15:30:38.349Z,96662.67
2019-05-23T15:33:10.624Z,96663.50
2019-05-23T15:35:42.542Z,96665.60
2019-05-23T15:38:15.291Z,96663.52
2019-05-23T15:40:47.053Z,96662.77
2019-05-23T15:43:18.844Z,96656.60
2019-05-23T15:45:50.730Z,96660.47
2019-05-23T15:48:22.676Z,96657.98
2019-05-23T15:50:54.710Z,96648.44
2019-05-23T15:53:28.194Z,96651.41
2019-05-23T15:56:16.786Z,96650.30
2019-05-23T15:58:46.023Z,96646.66
2019-05-23T16:01:38.136Z,96649.75
2019-05-23T16:04:12.489Z,96643.04
2019-05-23T16:06:44.801Z,96644.67
2019-05-23T16:09:28.380Z,96640.78
2019-05-23T16:11:50.547Z,96643.12
2019-05-23T16:14:23.660Z,96643.50
2019-05-23T16:16:57.254Z,96642.07
2019-05-23T16:19:29.095Z,96640.14
2019-05-23T16:22:01.398Z,96634.02
2019-05-23T16:24:33.150Z,96638.95
2019-05-23T16:27:06.430Z,96632.77
2019-05-23T16:29:38.983Z,96634.78
2019-05-23T16:32:11.568Z,96632.24
2019-05-23T16:34:43.622Z,96637.15
2019-05-23T16:37:16.217Z,96640.51
2019-05-23T16:39:49.732Z,96630.19
2019-05-23T16:42:21.860Z,96641.75
2019-05-23T16:44:53.623Z,96630.92
2019-05-23T16:47:25.967Z,96629.12
2019-05-23T16:49:57.814Z,96630.11
2019-05-23T16:52:29.583Z,96634.20
2019-05-23T16:55:03.136Z,96627.33
2019-05-23T16:57:54.889Z,96625.85
2019-05-23T17:00:35.421Z,96623.84
2019-05-23T17:03:24.926Z,96622.59
2019-05-23T17:06:14.439Z,96619.81
2019-05-23T17:08:59.716Z,96619.81
2019-05-23T17:11:38.885Z,96625.67
2019-05-23T17:14:31.090Z,96618.96
2019-05-23T17:17:05.722Z,96622.93
2019-05-23T17:19:46.931Z,96620.72
2019-05-23T17:22:24.220Z,96626.09
2019-05-23T17:24:57.637Z,96622.59
2019-05-23T17:27:42.939Z,96625.34
2019-05-23T17:30:16.892Z,96623.70
2019-05-23T17:32:48.672Z,96615.80
2019-05-23T17:35:20.449Z,96623.72
2019-05-23T17:37:52.217Z,96620.70
2019-05-23T17:40:25.634Z,96615.94
2019-05-23T17:42:58.091Z,96615.01
2019-05-23T17:45:30.510Z,96613.38
2019-05-23T17:48:02.530Z,96613.38
2019-05-23T17:50:35.412Z,96611.13
2019-05-23T17:53:07.188Z,96605.84
2019-05-23T17:55:39.157Z,96607.89
2019-05-23T17:58:11.068Z,96613.36
2019-05-23T18:00:44.507Z,96612.02
2019-05-23T18:03:16.650Z,96611.39
2019-05-23T18:05:48.517Z,96606.91
2019-05-23T18:08:20.622Z,96608.44
2019-05-23T18:10:52.545Z,96608.55
2019-05-23T18:13:24.796Z,96601.56
2019-05-23T18:15:57.491Z,96610.09
2019-05-23T18:18:29.498Z,96605.29
2019-05-23T18:21:01.784Z,96604.88
2019-05-23T18:23:33.821Z,96607.91
2019-05-23T18:26:07.918Z,96611.22
2019-05-23T18:28:39.842Z,96612.25
2019-05-23T18:31:14.004Z,96613.58
2019-05-23T18:33:46.666Z,96618.36
2019-05-23T18:36:19.427Z,96616.16
2019-05-23T18:38:51.727Z,96618.82
2019-05-23T18:41:24.556Z,96617.31
2019-05-23T18:43:56.524Z,96623.80
2019-05-23T18:46:29.935Z,96625.50
2019-05-23T18:49:01.886Z,96626.08
2019-05-23T18:51:33.996Z,96636.06
2019-05-23T18:54:07.188Z,96636.30
2019-05-23T18:56:39.445Z,96630.06
2019-05-23T18:59:12.528Z,96636.92
2019-05-23T19:01:44.386Z,96636.77
2019-05-23T19:04:16.473Z,96638.93
2019-05-23T19:06:49.127Z,96638.64
2019-05-23T19:09:22.701Z,96639.56
2019-05-23T19:11:54.709Z,96639.05
2019-05-23T19:14:26.490Z,96646.17
2019-05-23T19:16:58.664Z,96642.13
2019-05-23T19:19:31.144Z,96655.80
2019-05-23T19:22:04.053Z,96660.39
2019-05-23T19:24:36.875Z,96661.25
2019-05-23T19:27:09.912Z,96662.51
2019-05-23T19:29:42.058Z,96662.66
2019-05-23T19:32:14.149Z,96663.45
2019-05-23T19:34:46.434Z,96661.66
2019-05-23T19:37:18.571Z,96667.12
2019-05-23T19:39:50.349Z,96664.10
2019-05-23T19:42:22.251Z,96664.09
2019-05-23T19:44:54.037Z,96664.36
2019-05-23T19:47:26.652Z,96661.89
2019-05-23T19:49:58.642Z,96668.36
2019-05-23T19:52:31.535Z,96666.92
2019-05-23T19:55:04.463Z,96659.65
2019-05-23T19:57:37.326Z,96660.31
2019-05-23T20:00:18.978Z,96665.63
2019-05-23T20:02:55.124Z,96661.88
2019-05-23T20:05:31.280Z,96662.02
2019-05-23T20:08:03.119Z,96660.73
2019-05-23T20:10:36.467Z,96657.94
2019-05-23T20:13:08.687Z,96659.36
2019-05-23T20:15:44.747Z,96659.34
2019-05-23T20:18:14.461Z,96659.27
2019-05-23T20:20:46.312Z,96662.00
2019-05-23T20:23:18.161Z,96662.13
2019-05-23T20:25:50.209Z,96657.74
2019-05-23T20:28:22.466Z,96656.98
2019-05-23T20:30:56.188Z,96659.83
2019-05-23T20:33:28.040Z,96659.38
2019-05-23T20:36:00.503Z,96660.86
2019-05-23T20:38:32.264Z,96657.80
2019-05-23T20:41:04.273Z,96656.46
2019-05-23T20:43:36.153Z,96662.25
2019-05-23T20:46:08.063Z,96652.72
2019-05-23T20:48:40.168Z,96650.31
2019-05-23T20:51:12.023Z,96644.98
2019-05-23T20:53:44.249Z,96645.81
2019-05-23T20:56:16.034Z,96642.85
2019-05-23T20:58:47.953Z,96646.55
2019-05-23T21:01:21.528Z,96652.20
2019-05-23T21:03:54.771Z,96649.26
2019-05-23T21:06:26.621Z,96652.45
2019-05-23T21:08:58.664Z,96659.10
2019-05-23T21:11:31.760Z,96653.70
2019-05-23T21:14:03.525Z,96656.37
2019-05-23T21:16:35.319Z,96656.75
2019-05-23T21:19:07.157Z,96657.17
2019-05-23T21:21:38.945Z,96659.70
2019-05-23T21:24:10.998Z,96656.94
2019-05-23T21:26:42.772Z,96658.97
2019-05-23T21:29:14.861Z,96653.45
2019-05-23T21:31:46.711Z,96655.64
2019-05-23T21:34:21.898Z,96653.20
2019-05-23T21:36:51.991Z,96651.92
2019-05-23T21:39:23.992Z,96652.12
2019-05-23T21:41:55.773Z,96651.67
2019-05-23T21:44:27.660Z,96652.16
2019-05-23T21:46:59.518Z,96654.97
2019-05-23T21:49:31.298Z,96653.44
2019-05-23T21:52:03.085Z,96649.97
2019-05-23T21:54:34.931Z,96646.20
2019-05-23T21:57:06.849Z,96651.67
2019-05-23T21:59:38.621Z,96648.23
2019-05-23T22:02:14.073Z,96645.78
2019-05-23T22:04:47.562Z,96644.98
2019-05-23T22:07:19.337Z,96650.28
2019-05-23T22:09:51.120Z,96645.03
2019-05-23T22:12:22.897Z,96644.04
2019-05-23T22:14:56.285Z,96642.08
2019-05-23T22:17:28.806Z,96643.41
2019-05-23T22:20:00.583Z,96640.97
2019-05-23T22:22:32.367Z,96642.28
2019-05-23T22:25:04.947Z,96643.93
2019-05-23T22:27:36.747Z,96641.45
2019-05-23T22:30:08.750Z,96645.73
2019-05-23T22:32:40.969Z,96641.31
2019-05-23T22:35:14.880Z,96640.48
2019-05-23T22:37:47.721Z,96640.16
2019-05-23T22:40:19.511Z,96636.85
2019-05-23T22:42:51.273Z,96631.28
2019-05-23T22:45:24.771Z,96633.73
2019-05-23T22:47:56.808Z,96639.13
2019-05-23T22:50:28.722Z,96645.04
2019-05-23T22:53:00.508Z,96645.38
2019-05-23T22:55:32.704Z,96640.73
2019-05-23T22:58:04.484Z,96640.73
2019-05-23T23:00:37.912Z,96634.34
2019-05-23T23:03:10.735Z,96633.98
2019-05-23T23:05:42.534Z,96633.96
2019-05-23T23:08:14.298Z,96631.97
2019-05-23T23:10:46.072Z,96636.23
2019-05-23T23:13:17.841Z,96631.95
2019-05-23T23:15:50.009Z,96627.14
2019-05-23T23:18:21.761Z,96626.80
2019-05-23T23:20:54.320Z,96621.55
2019-05-23T23:23:26.077Z,96615.61
2019-05-23T23:25:57.856Z,96612.16
2019-05-23T23:28:29.690Z,96609.83
2019-05-23T23:31:01.941Z,96608.36
2019-05-23T23:33:33.685Z,96612.27
2019-05-23T23:36:05.464Z,96612.59
2019-05-23T23:38:37.555Z,96609.64
2019-05-23T23:41:09.402Z,96613.09
2019-05-23T23:43:57.903Z,96608.17
2019-05-23T23:46:33.193Z,96611.28
2019-05-23T23:49:22.684Z,96609.64
2019-05-23T23:52:12.243Z,96610.91
2019-05-23T23:55:01.863Z,96613.86
2019-05-23T23:57:51.543Z,96612.22
